sensor_id;sensor_type;location;lat;lon;timestamp;P1;durP1;ratioP1;P2;durP2;ratioP2
13933;SDS011;7039;52.168;9.866;2023-10-19T00:01:54;27.63;;;17.13;;
13933;SDS011;7039;52.168;9.866;2023-10-19T00:04:21;26.07;;;17.07;;
13933;SDS011;7039;52.168;9.866;2023-10-19T00:06:48;28.23;;;17.17;;
13933;SDS011;7039;52.168;9.866;2023-10-19T00:09:14;24.57;;;17.73;;
13933;SDS011;7039;52.168;9.866;2023-10-19T00:11:41;28.03;;;17.67;;
13933;SDS011;7039;52.168;9.866;2023-10-19T00:14:07;29.63;;;18.77;;
13933;SDS011;7039;52.168;9.866;2023-10-19T00:16:40;28.33;;;17.80;;
13933;SDS011;7039;52.168;9.866;2023-10-19T00:19:09;29.80;;;17.47;;
13933;SDS011;7039;52.168;9.866;2023-10-19T00:21:36;26.93;;;18.20;;
13933;SDS011;7039;52.168;9.866;2023-10-19T00:24:14;30.40;;;17.90;;
13933;SDS011;7039;52.168;9.866;2023-10-19T00:26:42;30.47;;;18.93;;
13933;SDS011;7039;52.168;9.866;2023-10-19T00:29:09;26.60;;;18.07;;
13933;SDS011;7039;52.168;9.866;2023-10-19T00:31:48;31.47;;;18.37;;
13933;SDS011;7039;52.168;9.866;2023-10-19T00:34:16;27.37;;;16.93;;
13933;SDS011;7039;52.168;9.866;2023-10-19T00:36:44;30.67;;;18.30;;
13933;SDS011;7039;52.168;9.866;2023-10-19T00:39:10;30.17;;;18.43;;
13933;SDS011;7039;52.168;9.866;2023-10-19T00:41:46;29.20;;;18.17;;
13933;SDS011;7039;52.168;9.866;2023-10-19T00:44:13;32.67;;;19.00;;
13933;SDS011;7039;52.168;9.866;2023-10-19T00:46:43;30.93;;;19.10;;
13933;SDS011;7039;52.168;9.866;2023-10-19T00:49:15;30.17;;;19.67;;
13933;SDS011;7039;52.168;9.866;2023-10-19T00:51:44;29.23;;;18.70;;
13933;SDS011;7039;52.168;9.866;2023-10-19T00:54:20;27.63;;;18.73;;
13933;SDS011;7039;52.168;9.866;2023-10-19T00:56:56;33.73;;;20.60;;
13933;SDS011;7039;52.168;9.866;2023-10-19T00:59:28;29.03;;;20.50;;
13933;SDS011;7039;52.168;9.866;2023-10-19T01:02:00;33.53;;;21.33;;
13933;SDS011;7039;52.168;9.866;2023-10-19T01:04:41;33.90;;;20.03;;
13933;SDS011;7039;52.168;9.866;2023-10-19T01:07:11;29.23;;;19.27;;
13933;SDS011;7039;52.168;9.866;2023-10-19T01:09:40;30.43;;;20.90;;
13933;SDS011;7039;52.168;9.866;2023-10-19T01:12:09;30.37;;;20.27;;
13933;SDS011;7039;52.168;9.866;2023-10-19T01:15:04;36.13;;;20.00;;
13933;SDS011;7039;52.168;9.866;2023-10-19T01:17:33;33.60;;;21.07;;
13933;SDS011;7039;52.168;9.866;2023-10-19T01:20:05;33.37;;;21.13;;
13933;SDS011;7039;52.168;9.866;2023-10-19T01:22:46;33.07;;;21.67;;
13933;SDS011;7039;52.168;9.866;2023-10-19T01:25:18;34.00;;;20.50;;
13933;SDS011;7039;52.168;9.866;2023-10-19T01:27:49;36.63;;;22.57;;
13933;SDS011;7039;52.168;9.866;2023-10-19T01:30:19;36.77;;;23.20;;
13933;SDS011;7039;52.168;9.866;2023-10-19T01:32:46;36.67;;;23.00;;
13933;SDS011;7039;52.168;9.866;2023-10-19T01:35:12;37.53;;;24.37;;
13933;SDS011;7039;52.168;9.866;2023-10-19T01:37:39;36.97;;;24.30;;
13933;SDS011;7039;52.168;9.866;2023-10-19T01:40:08;42.13;;;25.40;;
13933;SDS011;7039;52.168;9.866;2023-10-19T01:42:34;40.70;;;25.33;;
13933;SDS011;7039;52.168;9.866;2023-10-19T01:45:00;40.57;;;24.20;;
13933;SDS011;7039;52.168;9.866;2023-10-19T01:47:26;35.40;;;23.07;;
13933;SDS011;7039;52.168;9.866;2023-10-19T01:49:53;41.57;;;24.40;;
13933;SDS011;7039;52.168;9.866;2023-10-19T01:52:19;36.60;;;23.73;;
13933;SDS011;7039;52.168;9.866;2023-10-19T01:54:49;37.93;;;22.67;;
13933;SDS011;7039;52.168;9.866;2023-10-19T01:57:25;36.53;;;22.90;;
13933;SDS011;7039;52.168;9.866;2023-10-19T01:59:51;40.20;;;23.67;;
13933;SDS011;7039;52.168;9.866;2023-10-19T02:02:17;37.93;;;23.57;;
13933;SDS011;7039;52.168;9.866;2023-10-19T02:04:46;34.73;;;23.00;;
13933;SDS011;7039;52.168;9.866;2023-10-19T02:07:14;40.83;;;24.43;;
13933;SDS011;7039;52.168;9.866;2023-10-19T02:09:43;41.03;;;23.93;;
13933;SDS011;7039;52.168;9.866;2023-10-19T02:12:09;37.53;;;24.83;;
13933;SDS011;7039;52.168;9.866;2023-10-19T02:14:37;38.73;;;24.13;;
13933;SDS011;7039;52.168;9.866;2023-10-19T02:17:04;37.37;;;23.70;;
13933;SDS011;7039;52.168;9.866;2023-10-19T02:19:30;38.20;;;24.47;;
13933;SDS011;7039;52.168;9.866;2023-10-19T02:21:59;39.60;;;23.67;;
13933;SDS011;7039;52.168;9.866;2023-10-19T02:24:28;38.87;;;23.67;;
13933;SDS011;7039;52.168;9.866;2023-10-19T02:26:54;34.83;;;23.33;;
13933;SDS011;7039;52.168;9.866;2023-10-19T02:29:22;38.70;;;23.57;;
13933;SDS011;7039;52.168;9.866;2023-10-19T02:31:49;38.87;;;24.27;;
13933;SDS011;7039;52.168;9.866;2023-10-19T02:34:17;37.03;;;23.00;;
13933;SDS011;7039;52.168;9.866;2023-10-19T02:36:44;37.57;;;23.27;;
13933;SDS011;7039;52.168;9.866;2023-10-19T02:39:13;40.53;;;24.27;;
13933;SDS011;7039;52.168;9.866;2023-10-19T02:41:39;39.53;;;23.23;;
13933;SDS011;7039;52.168;9.866;2023-10-19T02:44:09;37.13;;;23.30;;
13933;SDS011;7039;52.168;9.866;2023-10-19T02:46:44;38.63;;;23.77;;
13933;SDS011;7039;52.168;9.866;2023-10-19T02:49:13;41.10;;;23.97;;
13933;SDS011;7039;52.168;9.866;2023-10-19T02:51:43;35.57;;;23.67;;
13933;SDS011;7039;52.168;9.866;2023-10-19T02:54:11;38.60;;;24.97;;
13933;SDS011;7039;52.168;9.866;2023-10-19T02:56:43;42.33;;;25.13;;
13933;SDS011;7039;52.168;9.866;2023-10-19T02:59:12;33.67;;;22.87;;
13933;SDS011;7039;52.168;9.866;2023-10-19T03:01:41;35.90;;;23.33;;
13933;SDS011;7039;52.168;9.866;2023-10-19T03:04:09;41.13;;;24.87;;
13933;SDS011;7039;52.168;9.866;2023-10-19T03:06:38;36.60;;;23.83;;
13933;SDS011;7039;52.168;9.866;2023-10-19T03:09:06;36.10;;;23.50;;
13933;SDS011;7039;52.168;9.866;2023-10-19T03:11:39;38.63;;;23.53;;
13933;SDS011;7039;52.168;9.866;2023-10-19T03:14:06;38.13;;;22.80;;
13933;SDS011;7039;52.168;9.866;2023-10-19T03:16:33;33.87;;;23.00;;
13933;SDS011;7039;52.168;9.866;2023-10-19T03:19:00;41.73;;;23.67;;
13933;SDS011;7039;52.168;9.866;2023-10-19T03:21:25;37.13;;;24.27;;
13933;SDS011;7039;52.168;9.866;2023-10-19T03:23:54;39.03;;;23.53;;
13933;SDS011;7039;52.168;9.866;2023-10-19T03:26:21;33.53;;;22.97;;
13933;SDS011;7039;52.168;9.866;2023-10-19T03:28:56;38.93;;;24.37;;
13933;SDS011;7039;52.168;9.866;2023-10-19T03:31:27;39.83;;;24.77;;
13933;SDS011;7039;52.168;9.866;2023-10-19T03:33:54;36.37;;;23.33;;
13933;SDS011;7039;52.168;9.866;2023-10-19T03:36:21;37.83;;;24.20;;
13933;SDS011;7039;52.168;9.866;2023-10-19T03:38:48;33.53;;;23.00;;
13933;SDS011;7039;52.168;9.866;2023-10-19T03:41:17;41.83;;;23.83;;
13933;SDS011;7039;52.168;9.866;2023-10-19T03:43:46;35.77;;;22.67;;
13933;SDS011;7039;52.168;9.866;2023-10-19T03:46:14;32.83;;;22.17;;
13933;SDS011;7039;52.168;9.866;2023-10-19T03:48:47;33.60;;;22.70;;
13933;SDS011;7039;52.168;9.866;2023-10-19T03:51:14;33.33;;;21.53;;
13933;SDS011;7039;52.168;9.866;2023-10-19T03:53:42;34.20;;;21.03;;
13933;SDS011;7039;52.168;9.866;2023-10-19T03:56:13;32.70;;;21.87;;
13933;SDS011;7039;52.168;9.866;2023-10-19T03:58:43;32.93;;;21.03;;
13933;SDS011;7039;52.168;9.866;2023-10-19T04:01:13;35.57;;;22.23;;
13933;SDS011;7039;52.168;9.866;2023-10-19T04:03:41;35.37;;;21.60;;
13933;SDS011;7039;52.168;9.866;2023-10-19T04:06:08;34.20;;;21.37;;
13933;SDS011;7039;52.168;9.866;2023-10-19T04:08:39;31.73;;;20.80;;
13933;SDS011;7039;52.168;9.866;2023-10-19T04:11:05;31.93;;;21.60;;
13933;SDS011;7039;52.168;9.866;2023-10-19T04:13:36;34.27;;;20.50;;
13933;SDS011;7039;52.168;9.866;2023-10-19T04:16:05;30.37;;;20.83;;
13933;SDS011;7039;52.168;9.866;2023-10-19T04:18:34;33.67;;;21.90;;
13933;SDS011;7039;52.168;9.866;2023-10-19T04:21:03;29.97;;;19.77;;
13933;SDS011;7039;52.168;9.866;2023-10-19T04:23:29;33.67;;;21.47;;
13933;SDS011;7039;52.168;9.866;2023-10-19T04:26:00;33.60;;;20.73;;
13933;SDS011;7039;52.168;9.866;2023-10-19T04:28:29;33.87;;;20.67;;
13933;SDS011;7039;52.168;9.866;2023-10-19T04:30:57;34.63;;;22.80;;
13933;SDS011;7039;52.168;9.866;2023-10-19T04:33:30;32.33;;;20.77;;
13933;SDS011;7039;52.168;9.866;2023-10-19T04:35:57;31.90;;;20.27;;
13933;SDS011;7039;52.168;9.866;2023-10-19T04:38:25;29.07;;;19.13;;
13933;SDS011;7039;52.168;9.866;2023-10-19T04:40:51;30.23;;;19.83;;
13933;SDS011;7039;52.168;9.866;2023-10-19T04:43:18;26.90;;;19.13;;
13933;SDS011;7039;52.168;9.866;2023-10-19T04:45:46;28.63;;;18.97;;
13933;SDS011;7039;52.168;9.866;2023-10-19T04:48:13;27.33;;;18.33;;
13933;SDS011;7039;52.168;9.866;2023-10-19T04:50:40;27.20;;;18.27;;
13933;SDS011;7039;52.168;9.866;2023-10-19T04:53:07;27.67;;;17.57;;
13933;SDS011;7039;52.168;9.866;2023-10-19T04:55:33;26.20;;;17.70;;
13933;SDS011;7039;52.168;9.866;2023-10-19T04:58:00;26.50;;;16.73;;
13933;SDS011;7039;52.168;9.866;2023-10-19T05:00:26;24.63;;;16.60;;
13933;SDS011;7039;52.168;9.866;2023-10-19T05:02:53;21.73;;;15.20;;
13933;SDS011;7039;52.168;9.866;2023-10-19T05:05:20;25.33;;;17.53;;
13933;SDS011;7039;52.168;9.866;2023-10-19T05:07:48;26.53;;;16.40;;
13933;SDS011;7039;52.168;9.866;2023-10-19T05:10:14;23.20;;;16.23;;
13933;SDS011;7039;52.168;9.866;2023-10-19T05:12:41;24.80;;;16.07;;
13933;SDS011;7039;52.168;9.866;2023-10-19T05:15:08;24.83;;;16.00;;
13933;SDS011;7039;52.168;9.866;2023-10-19T05:17:34;23.70;;;16.30;;
13933;SDS011;7039;52.168;9.866;2023-10-19T05:20:01;23.97;;;15.17;;
13933;SDS011;7039;52.168;9.866;2023-10-19T05:22:30;22.03;;;15.13;;
13933;SDS011;7039;52.168;9.866;2023-10-19T05:24:59;22.80;;;15.13;;
13933;SDS011;7039;52.168;9.866;2023-10-19T05:27:26;21.73;;;15.20;;
13933;SDS011;7039;52.168;9.866;2023-10-19T05:29:52;19.97;;;14.53;;
13933;SDS011;7039;52.168;9.866;2023-10-19T05:32:19;20.50;;;13.37;;
13933;SDS011;7039;52.168;9.866;2023-10-19T05:34:46;18.57;;;13.57;;
13933;SDS011;7039;52.168;9.866;2023-10-19T05:37:12;19.43;;;14.03;;
13933;SDS011;7039;52.168;9.866;2023-10-19T05:39:39;16.80;;;12.47;;
13933;SDS011;7039;52.168;9.866;2023-10-19T05:42:06;18.13;;;13.33;;
13933;SDS011;7039;52.168;9.866;2023-10-19T05:44:33;18.83;;;13.17;;
13933;SDS011;7039;52.168;9.866;2023-10-19T05:47:00;19.47;;;12.37;;
13933;SDS011;7039;52.168;9.866;2023-10-19T05:49:27;18.33;;;13.13;;
13933;SDS011;7039;52.168;9.866;2023-10-19T05:51:54;18.73;;;12.93;;
13933;SDS011;7039;52.168;9.866;2023-10-19T05:54:20;17.07;;;12.40;;
13933;SDS011;7039;52.168;9.866;2023-10-19T05:56:49;17.73;;;12.30;;
13933;SDS011;7039;52.168;9.866;2023-10-19T05:59:18;18.67;;;13.33;;
13933;SDS011;7039;52.168;9.866;2023-10-19T06:01:44;21.17;;;13.67;;
13933;SDS011;7039;52.168;9.866;2023-10-19T06:04:12;19.63;;;12.93;;
13933;SDS011;7039;52.168;9.866;2023-10-19T06:06:38;16.80;;;12.20;;
13933;SDS011;7039;52.168;9.866;2023-10-19T06:09:05;17.63;;;12.93;;
13933;SDS011;7039;52.168;9.866;2023-10-19T06:11:33;21.43;;;14.00;;
13933;SDS011;7039;52.168;9.866;2023-10-19T06:14:02;20.03;;;13.83;;
13933;SDS011;7039;52.168;9.866;2023-10-19T06:16:33;19.10;;;13.47;;
13933;SDS011;7039;52.168;9.866;2023-10-19T06:18:59;20.70;;;14.77;;
13933;SDS011;7039;52.168;9.866;2023-10-19T06:21:26;20.17;;;14.07;;
13933;SDS011;7039;52.168;9.866;2023-10-19T06:23:53;20.53;;;14.40;;
13933;SDS011;7039;52.168;9.866;2023-10-19T06:26:19;19.97;;;13.90;;
13933;SDS011;7039;52.168;9.866;2023-10-19T06:28:46;20.17;;;14.00;;
13933;SDS011;7039;52.168;9.866;2023-10-19T06:31:12;27.07;;;15.97;;
13933;SDS011;7039;52.168;9.866;2023-10-19T06:33:41;35.77;;;20.07;;
13933;SDS011;7039;52.168;9.866;2023-10-19T06:36:08;22.30;;;15.47;;
13933;SDS011;7039;52.168;9.866;2023-10-19T06:38:34;21.27;;;14.07;;
13933;SDS011;7039;52.168;9.866;2023-10-19T06:41:01;19.27;;;13.47;;
13933;SDS011;7039;52.168;9.866;2023-10-19T06:43:37;18.67;;;13.10;;
13933;SDS011;7039;52.168;9.866;2023-10-19T06:46:03;18.17;;;12.67;;
13933;SDS011;7039;52.168;9.866;2023-10-19T06:48:30;20.57;;;13.60;;
13933;SDS011;7039;52.168;9.866;2023-10-19T06:50:58;19.33;;;13.57;;
13933;SDS011;7039;52.168;9.866;2023-10-19T06:53:25;16.80;;;12.07;;
13933;SDS011;7039;52.168;9.866;2023-10-19T06:55:52;20.73;;;13.97;;
13933;SDS011;7039;52.168;9.866;2023-10-19T06:58:20;18.50;;;13.10;;
13933;SDS011;7039;52.168;9.866;2023-10-19T07:00:51;19.23;;;12.53;;
13933;SDS011;7039;52.168;9.866;2023-10-19T07:03:22;17.87;;;12.57;;
13933;SDS011;7039;52.168;9.866;2023-10-19T07:05:48;21.30;;;12.80;;
13933;SDS011;7039;52.168;9.866;2023-10-19T07:08:19;17.93;;;12.90;;
13933;SDS011;7039;52.168;9.866;2023-10-19T07:10:46;17.30;;;11.80;;
13933;SDS011;7039;52.168;9.866;2023-10-19T07:13:14;18.63;;;11.37;;
13933;SDS011;7039;52.168;9.866;2023-10-19T07:15:41;14.07;;;10.37;;
13933;SDS011;7039;52.168;9.866;2023-10-19T07:18:07;16.30;;;11.30;;
13933;SDS011;7039;52.168;9.866;2023-10-19T07:20:34;14.80;;;10.87;;
13933;SDS011;7039;52.168;9.866;2023-10-19T07:23:01;13.20;;;10.53;;
13933;SDS011;7039;52.168;9.866;2023-10-19T07:25:33;15.60;;;10.77;;
13933;SDS011;7039;52.168;9.866;2023-10-19T07:28:08;14.20;;;10.70;;
13933;SDS011;7039;52.168;9.866;2023-10-19T07:30:34;14.67;;;11.00;;
13933;SDS011;7039;52.168;9.866;2023-10-19T07:33:02;13.30;;;9.73;;
13933;SDS011;7039;52.168;9.866;2023-10-19T07:35:29;13.93;;;10.37;;
13933;SDS011;7039;52.168;9.866;2023-10-19T07:38:02;14.70;;;10.90;;
13933;SDS011;7039;52.168;9.866;2023-10-19T07:40:29;14.03;;;10.30;;
13933;SDS011;7039;52.168;9.866;2023-10-19T07:42:58;15.87;;;10.53;;
13933;SDS011;7039;52.168;9.866;2023-10-19T07:45:24;13.27;;;9.83;;
13933;SDS011;7039;52.168;9.866;2023-10-19T07:47:51;14.70;;;10.23;;
13933;SDS011;7039;52.168;9.866;2023-10-19T07:50:18;14.63;;;10.43;;
13933;SDS011;7039;52.168;9.866;2023-10-19T07:52:49;12.73;;;9.90;;
13933;SDS011;7039;52.168;9.866;2023-10-19T07:55:16;14.60;;;10.70;;
13933;SDS011;7039;52.168;9.866;2023-10-19T07:57:44;16.30;;;10.03;;
13933;SDS011;7039;52.168;9.866;2023-10-19T08:00:13;15.70;;;11.17;;
13933;SDS011;7039;52.168;9.866;2023-10-19T08:02:40;14.87;;;9.80;;
13933;SDS011;7039;52.168;9.866;2023-10-19T08:05:07;14.07;;;9.70;;
13933;SDS011;7039;52.168;9.866;2023-10-19T08:07:36;12.43;;;9.07;;
13933;SDS011;7039;52.168;9.866;2023-10-19T08:10:05;13.07;;;9.87;;
13933;SDS011;7039;52.168;9.866;2023-10-19T08:12:34;13.33;;;9.43;;
13933;SDS011;7039;52.168;9.866;2023-10-19T08:15:01;11.47;;;9.33;;
13933;SDS011;7039;52.168;9.866;2023-10-19T08:17:29;13.83;;;9.53;;
13933;SDS011;7039;52.168;9.866;2023-10-19T08:19:56;12.93;;;9.90;;
13933;SDS011;7039;52.168;9.866;2023-10-19T08:22:23;13.63;;;9.23;;
13933;SDS011;7039;52.168;9.866;2023-10-19T08:24:49;12.17;;;9.33;;
13933;SDS011;7039;52.168;9.866;2023-10-19T08:27:16;13.33;;;9.27;;
13933;SDS011;7039;52.168;9.866;2023-10-19T08:29:44;12.50;;;9.97;;
13933;SDS011;7039;52.168;9.866;2023-10-19T08:32:11;12.43;;;9.47;;
13933;SDS011;7039;52.168;9.866;2023-10-19T08:34:41;13.53;;;10.00;;
13933;SDS011;7039;52.168;9.866;2023-10-19T08:37:07;15.33;;;10.67;;
13933;SDS011;7039;52.168;9.866;2023-10-19T08:39:33;14.03;;;9.67;;
13933;SDS011;7039;52.168;9.866;2023-10-19T08:42:02;17.30;;;12.97;;
13933;SDS011;7039;52.168;9.866;2023-10-19T08:44:29;14.37;;;10.40;;
13933;SDS011;7039;52.168;9.866;2023-10-19T08:46:56;14.37;;;9.57;;
13933;SDS011;7039;52.168;9.866;2023-10-19T08:49:24;13.90;;;10.80;;
13933;SDS011;7039;52.168;9.866;2023-10-19T08:51:53;13.67;;;9.43;;
13933;SDS011;7039;52.168;9.866;2023-10-19T08:54:21;12.03;;;9.13;;
13933;SDS011;7039;52.168;9.866;2023-10-19T08:56:47;11.10;;;8.77;;
13933;SDS011;7039;52.168;9.866;2023-10-19T08:59:14;11.97;;;8.80;;
13933;SDS011;7039;52.168;9.866;2023-10-19T09:01:42;12.27;;;9.67;;
13933;SDS011;7039;52.168;9.866;2023-10-19T09:04:09;12.13;;;9.23;;
13933;SDS011;7039;52.168;9.866;2023-10-19T09:06:36;17.00;;;9.80;;
13933;SDS011;7039;52.168;9.866;2023-10-19T09:09:08;17.67;;;12.30;;
13933;SDS011;7039;52.168;9.866;2023-10-19T09:11:38;14.93;;;11.20;;
13933;SDS011;7039;52.168;9.866;2023-10-19T09:14:05;18.20;;;10.77;;
13933;SDS011;7039;52.168;9.866;2023-10-19T09:16:32;14.30;;;9.90;;
13933;SDS011;7039;52.168;9.866;2023-10-19T09:18:59;11.97;;;9.63;;
13933;SDS011;7039;52.168;9.866;2023-10-19T09:21:26;10.50;;;8.67;;
13933;SDS011;7039;52.168;9.866;2023-10-19T09:23:53;11.87;;;8.77;;
13933;SDS011;7039;52.168;9.866;2023-10-19T09:26:22;14.00;;;9.30;;
13933;SDS011;7039;52.168;9.866;2023-10-19T09:28:50;12.77;;;9.77;;
13933;SDS011;7039;52.168;9.866;2023-10-19T09:31:19;12.70;;;10.13;;
13933;SDS011;7039;52.168;9.866;2023-10-19T09:33:47;16.87;;;10.50;;
13933;SDS011;7039;52.168;9.866;2023-10-19T09:36:14;12.73;;;10.00;;
13933;SDS011;7039;52.168;9.866;2023-10-19T09:38:44;12.43;;;9.83;;
13933;SDS011;7039;52.168;9.866;2023-10-19T09:41:13;11.93;;;9.93;;
13933;SDS011;7039;52.168;9.866;2023-10-19T09:43:44;11.93;;;9.07;;
13933;SDS011;7039;52.168;9.866;2023-10-19T09:46:11;11.07;;;8.87;;
13933;SDS011;7039;52.168;9.866;2023-10-19T09:48:40;12.90;;;9.17;;
13933;SDS011;7039;52.168;9.866;2023-10-19T09:51:08;11.73;;;9.07;;
13933;SDS011;7039;52.168;9.866;2023-10-19T09:53:35;11.00;;;8.70;;
13933;SDS011;7039;52.168;9.866;2023-10-19T09:56:05;11.60;;;8.97;;
13933;SDS011;7039;52.168;9.866;2023-10-19T09:58:34;13.37;;;10.17;;
13933;SDS011;7039;52.168;9.866;2023-10-19T10:01:04;14.70;;;9.90;;
13933;SDS011;7039;52.168;9.866;2023-10-19T10:03:43;13.50;;;10.93;;
13933;SDS011;7039;52.168;9.866;2023-10-19T10:06:11;13.03;;;10.67;;
13933;SDS011;7039;52.168;9.866;2023-10-19T10:08:39;11.53;;;9.63;;
13933;SDS011;7039;52.168;9.866;2023-10-19T10:11:13;13.80;;;9.30;;
13933;SDS011;7039;52.168;9.866;2023-10-19T10:13:43;12.20;;;9.27;;
13933;SDS011;7039;52.168;9.866;2023-10-19T10:16:13;10.50;;;8.67;;
13933;SDS011;7039;52.168;9.866;2023-10-19T10:18:41;13.43;;;9.60;;
13933;SDS011;7039;52.168;9.866;2023-10-19T10:21:10;12.13;;;8.97;;
13933;SDS011;7039;52.168;9.866;2023-10-19T10:23:41;11.27;;;9.57;;
13933;SDS011;7039;52.168;9.866;2023-10-19T10:26:09;16.87;;;10.00;;
13933;SDS011;7039;52.168;9.866;2023-10-19T10:28:36;12.93;;;9.70;;
13933;SDS011;7039;52.168;9.866;2023-10-19T10:31:13;12.47;;;9.87;;
13933;SDS011;7039;52.168;9.866;2023-10-19T10:33:42;11.87;;;9.60;;
13933;SDS011;7039;52.168;9.866;2023-10-19T10:36:11;11.77;;;9.40;;
13933;SDS011;7039;52.168;9.866;2023-10-19T10:38:38;12.13;;;9.83;;
13933;SDS011;7039;52.168;9.866;2023-10-19T10:41:05;14.07;;;10.27;;
13933;SDS011;7039;52.168;9.866;2023-10-19T10:43:46;14.13;;;11.23;;
13933;SDS011;7039;52.168;9.866;2023-10-19T10:46:16;25.83;;;19.03;;
13933;SDS011;7039;52.168;9.866;2023-10-19T10:48:43;20.80;;;16.53;;
13933;SDS011;7039;52.168;9.866;2023-10-19T10:51:16;26.33;;;21.73;;
13933;SDS011;7039;52.168;9.866;2023-10-19T10:53:43;19.40;;;13.23;;
13933;SDS011;7039;52.168;9.866;2023-10-19T10:56:13;16.00;;;11.63;;
13933;SDS011;7039;52.168;9.866;2023-10-19T10:58:39;21.13;;;17.93;;
13933;SDS011;7039;52.168;9.866;2023-10-19T11:01:06;23.20;;;17.90;;
13933;SDS011;7039;52.168;9.866;2023-10-19T11:03:34;28.17;;;21.87;;
13933;SDS011;7039;52.168;9.866;2023-10-19T11:06:04;26.97;;;22.27;;
13933;SDS011;7039;52.168;9.866;2023-10-19T11:08:33;19.67;;;14.20;;
13933;SDS011;7039;52.168;9.866;2023-10-19T11:11:01;15.83;;;12.83;;
13933;SDS011;7039;52.168;9.866;2023-10-19T11:13:30;17.57;;;12.63;;
13933;SDS011;7039;52.168;9.866;2023-10-19T11:15:58;17.43;;;13.67;;
13933;SDS011;7039;52.168;9.866;2023-10-19T11:18:29;15.00;;;13.10;;
13933;SDS011;7039;52.168;9.866;2023-10-19T11:20:58;15.37;;;12.30;;
13933;SDS011;7039;52.168;9.866;2023-10-19T11:23:39;14.10;;;12.20;;
13933;SDS011;7039;52.168;9.866;2023-10-19T11:26:07;14.60;;;10.83;;
13933;SDS011;7039;52.168;9.866;2023-10-19T11:28:34;13.50;;;11.13;;
13933;SDS011;7039;52.168;9.866;2023-10-19T11:31:13;14.00;;;11.40;;
13933;SDS011;7039;52.168;9.866;2023-10-19T11:33:41;12.53;;;10.30;;
13933;SDS011;7039;52.168;9.866;2023-10-19T11:36:11;16.17;;;10.50;;
13933;SDS011;7039;52.168;9.866;2023-10-19T11:38:41;18.63;;;14.30;;
13933;SDS011;7039;52.168;9.866;2023-10-19T11:41:08;39.03;;;29.20;;
13933;SDS011;7039;52.168;9.866;2023-10-19T11:43:35;23.03;;;18.20;;
13933;SDS011;7039;52.168;9.866;2023-10-19T11:46:02;17.03;;;14.70;;
13933;SDS011;7039;52.168;9.866;2023-10-19T11:48:31;13.33;;;11.73;;
13933;SDS011;7039;52.168;9.866;2023-10-19T11:50:58;15.97;;;11.53;;
13933;SDS011;7039;52.168;9.866;2023-10-19T11:53:28;15.60;;;11.47;;
13933;SDS011;7039;52.168;9.866;2023-10-19T11:55:58;15.13;;;11.87;;
13933;SDS011;7039;52.168;9.866;2023-10-19T11:58:25;12.73;;;10.07;;
13933;SDS011;7039;52.168;9.866;2023-10-19T12:00:52;12.10;;;10.43;;
13933;SDS011;7039;52.168;9.866;2023-10-19T12:03:19;14.83;;;11.07;;
13933;SDS011;7039;52.168;9.866;2023-10-19T12:05:46;15.73;;;10.77;;
13933;SDS011;7039;52.168;9.866;2023-10-19T12:08:13;13.87;;;10.93;;
13933;SDS011;7039;52.168;9.866;2023-10-19T12:10:41;13.27;;;10.93;;
13933;SDS011;7039;52.168;9.866;2023-10-19T12:13:07;13.90;;;11.00;;
13933;SDS011;7039;52.168;9.866;2023-10-19T12:15:34;16.97;;;11.70;;
13933;SDS011;7039;52.168;9.866;2023-10-19T12:18:01;15.73;;;10.97;;
13933;SDS011;7039;52.168;9.866;2023-10-19T12:20:28;15.33;;;11.83;;
13933;SDS011;7039;52.168;9.866;2023-10-19T12:22:56;16.97;;;11.30;;
13933;SDS011;7039;52.168;9.866;2023-10-19T12:25:23;14.53;;;11.73;;
13933;SDS011;7039;52.168;9.866;2023-10-19T12:27:56;18.23;;;12.70;;
13933;SDS011;7039;52.168;9.866;2023-10-19T12:30:23;13.00;;;10.23;;
13933;SDS011;7039;52.168;9.866;2023-10-19T12:32:51;14.87;;;11.30;;
13933;SDS011;7039;52.168;9.866;2023-10-19T12:35:18;13.57;;;11.20;;
13933;SDS011;7039;52.168;9.866;2023-10-19T12:37:49;13.13;;;10.40;;
13933;SDS011;7039;52.168;9.866;2023-10-19T12:40:17;13.83;;;10.93;;
13933;SDS011;7039;52.168;9.866;2023-10-19T12:42:53;13.97;;;10.83;;
13933;SDS011;7039;52.168;9.866;2023-10-19T12:45:22;16.50;;;11.03;;
13933;SDS011;7039;52.168;9.866;2023-10-19T12:47:48;15.17;;;11.30;;
13933;SDS011;7039;52.168;9.866;2023-10-19T12:50:17;16.93;;;11.87;;
13933;SDS011;7039;52.168;9.866;2023-10-19T12:52:47;16.23;;;11.57;;
13933;SDS011;7039;52.168;9.866;2023-10-19T12:55:14;19.67;;;11.60;;
13933;SDS011;7039;52.168;9.866;2023-10-19T12:57:41;15.63;;;11.20;;
13933;SDS011;7039;52.168;9.866;2023-10-19T13:00:07;14.13;;;11.37;;
13933;SDS011;7039;52.168;9.866;2023-10-19T13:03:03;17.50;;;10.53;;
13933;SDS011;7039;52.168;9.866;2023-10-19T13:05:31;14.83;;;10.53;;
13933;SDS011;7039;52.168;9.866;2023-10-19T13:07:58;17.97;;;11.17;;
13933;SDS011;7039;52.168;9.866;2023-10-19T13:10:27;19.07;;;14.40;;
13933;SDS011;7039;52.168;9.866;2023-10-19T13:12:57;16.63;;;11.30;;
13933;SDS011;7039;52.168;9.866;2023-10-19T13:15:24;16.80;;;11.70;;
13933;SDS011;7039;52.168;9.866;2023-10-19T13:17:55;16.90;;;12.37;;
13933;SDS011;7039;52.168;9.866;2023-10-19T13:20:23;18.17;;;11.57;;
13933;SDS011;7039;52.168;9.866;2023-10-19T13:22:51;16.93;;;12.07;;
13933;SDS011;7039;52.168;9.866;2023-10-19T13:25:17;18.60;;;14.57;;
13933;SDS011;7039;52.168;9.866;2023-10-19T13:27:53;21.47;;;13.43;;
13933;SDS011;7039;52.168;9.866;2023-10-19T13:30:20;16.73;;;12.27;;
13933;SDS011;7039;52.168;9.866;2023-10-19T13:32:48;18.47;;;13.07;;
13933;SDS011;7039;52.168;9.866;2023-10-19T13:35:14;17.60;;;12.67;;
13933;SDS011;7039;52.168;9.866;2023-10-19T13:37:42;20.57;;;12.97;;
13933;SDS011;7039;52.168;9.866;2023-10-19T13:40:10;23.00;;;14.20;;
13933;SDS011;7039;52.168;9.866;2023-10-19T13:42:36;18.97;;;13.00;;
13933;SDS011;7039;52.168;9.866;2023-10-19T13:45:03;23.87;;;15.30;;
13933;SDS011;7039;52.168;9.866;2023-10-19T13:47:31;20.33;;;14.60;;
13933;SDS011;7039;52.168;9.866;2023-10-19T13:49:58;22.00;;;14.00;;
13933;SDS011;7039;52.168;9.866;2023-10-19T13:52:25;21.40;;;14.80;;
13933;SDS011;7039;52.168;9.866;2023-10-19T13:54:53;24.53;;;17.00;;
13933;SDS011;7039;52.168;9.866;2023-10-19T13:57:19;19.57;;;12.90;;
13933;SDS011;7039;52.168;9.866;2023-10-19T13:59:46;19.00;;;13.47;;
13933;SDS011;7039;52.168;9.866;2023-10-19T14:02:14;22.40;;;14.77;;
13933;SDS011;7039;52.168;9.866;2023-10-19T14:04:40;22.77;;;14.73;;
13933;SDS011;7039;52.168;9.866;2023-10-19T14:07:07;23.93;;;15.57;;
13933;SDS011;7039;52.168;9.866;2023-10-19T14:09:33;24.57;;;15.60;;
13933;SDS011;7039;52.168;9.866;2023-10-19T14:12:01;23.13;;;15.43;;
13933;SDS011;7039;52.168;9.866;2023-10-19T14:14:29;25.40;;;16.40;;
13933;SDS011;7039;52.168;9.866;2023-10-19T14:16:55;25.17;;;15.73;;
13933;SDS011;7039;52.168;9.866;2023-10-19T14:19:23;24.60;;;15.67;;
13933;SDS011;7039;52.168;9.866;2023-10-19T14:21:50;21.60;;;14.37;;
13933;SDS011;7039;52.168;9.866;2023-10-19T14:24:17;23.73;;;15.30;;
13933;SDS011;7039;52.168;9.866;2023-10-19T14:26:45;24.97;;;16.30;;
13933;SDS011;7039;52.168;9.866;2023-10-19T14:29:13;27.70;;;16.13;;
13933;SDS011;7039;52.168;9.866;2023-10-19T14:31:40;28.63;;;17.10;;
13933;SDS011;7039;52.168;9.866;2023-10-19T14:34:07;25.20;;;16.47;;
13933;SDS011;7039;52.168;9.866;2023-10-19T14:36:34;30.50;;;16.77;;
13933;SDS011;7039;52.168;9.866;2023-10-19T14:39:00;26.23;;;16.33;;
13933;SDS011;7039;52.168;9.866;2023-10-19T14:41:27;30.90;;;17.83;;
13933;SDS011;7039;52.168;9.866;2023-10-19T14:43:53;29.00;;;16.77;;